Time;durP1;ratioP1;P1;durP2;ratioP2;P2;SDS_P1;SDS_P2;PMS_P1;PMS_P2;Temp;Humidity;BMP_temperature;BMP_pressure;BME280_temperature;BME280_humidity;BME280_pressure;Samples;Min_cycle;Max_cycle;Signal;HPM_P1;HPM_P2
2022/08/09 03:19:45;;;;;;;14.87;14.07;;;15.90;99.90;;;;;;5048639;23;20540;-69
2022/08/09 03:22:14;;;;;;;15.50;14.80;;;15.80;99.90;;;;;;4916261;29;20450;-70
2022/08/09 03:24:40;;;;;;;15.20;14.30;;;15.70;99.90;;;;;;4916037;29;20481;-70
2022/08/09 03:27:09;;;;;;;16.07;15.07;;;15.70;99.90;;;;;;4915673;29;20494;-70
2022/08/09 03:29:36;;;;;;;15.67;14.77;;;15.70;99.90;;;;;;4915709;29;20470;-69
2022/08/09 03:32:05;;;;;;;15.83;14.97;;;15.80;99.90;;;;;;4915945;29;20823;-70
2022/08/09 03:34:32;;;;;;;14.90;14.20;;;15.80;99.90;;;;;;4915608;29;20458;-70
2022/08/09 03:37:00;;;;;;;15.83;14.70;;;15.90;99.90;;;;;;4915810;29;20462;-70
2022/08/09 03:39:28;;;;;;;17.23;15.93;;;15.90;99.90;;;;;;4915777;29;20839;-70
2022/08/09 03:41:55;;;;;;;18.17;17.17;;;15.90;99.90;;;;;;4915629;29;20455;-70
2022/08/09 03:44:23;;;;;;;16.43;15.50;;;15.90;99.90;;;;;;4915652;29;20454;-70
2022/08/09 03:46:50;;;;;;;16.97;16.07;;;15.90;99.90;;;;;;4915418;29;20497;-70
2022/08/09 03:49:18;;;;;;;17.33;15.77;;;15.80;99.90;;;;;;4915567;29;20970;-70
2022/08/09 03:51:48;;;;;;;16.93;15.60;;;15.80;99.90;;;;;;4915461;29;20458;-70
2022/08/09 03:54:17;;;;;;;17.07;16.10;;;15.80;99.90;;;;;;4915408;29;20513;-70
2022/08/09 03:56:44;;;;;;;17.20;16.20;;;15.80;99.90;;;;;;4915358;29;20446;-70
2022/08/09 03:59:12;;;;;;;16.80;15.90;;;15.80;99.90;;;;;;4915232;29;20975;-70
2022/08/09 04:01:41;;;;;;;17.37;16.37;;;15.80;99.90;;;;;;4915077;29;20458;-70
2022/08/09 04:04:09;;;;;;;17.97;17.00;;;15.80;99.90;;;;;;4915001;29;20463;-70
2022/08/09 04:06:37;;;;;;;15.20;14.30;;;15.80;99.90;;;;;;4915088;29;21063;-70
2022/08/09 04:09:05;;;;;;;15.37;14.50;;;15.90;99.90;;;;;;4915000;29;20518;-70
2022/08/09 04:11:51;;;;;;;16.60;15.60;;;16.00;99.90;;;;;;4915027;29;20836;-70
2022/08/09 04:14:20;;;;;;;15.77;14.53;;;16.10;99.90;;;;;;4914935;29;20454;-70
2022/08/09 04:16:46;;;;;;;16.50;15.00;;;16.10;99.90;;;;;;4914845;29;20526;-70
2022/08/09 04:19:13;;;;;;;15.83;15.10;;;16.10;99.90;;;;;;4914921;29;20486;-70
2022/08/09 04:21:40;;;;;;;16.47;15.57;;;16.10;99.90;;;;;;4914870;29;20450;-71
2022/08/09 04:24:07;;;;;;;16.30;15.50;;;16.20;99.90;;;;;;4914760;29;20847;-71
2022/08/09 04:26:35;;;;;;;16.57;15.77;;;16.30;99.90;;;;;;4914304;29;20857;-69
2022/08/09 04:29:01;;;;;;;17.47;16.43;;;16.30;99.90;;;;;;4914142;29;20454;-70
2022/08/09 04:31:28;;;;;;;18.03;17.03;;;16.20;99.90;;;;;;4913969;29;20462;-70
2022/08/09 04:33:55;;;;;;;16.00;14.97;;;16.30;99.90;;;;;;4914319;29;20446;-71
2022/08/09 04:36:23;;;;;;;16.63;15.63;;;16.30;99.90;;;;;;4914415;29;20482;-70
2022/08/09 04:38:50;;;;;;;16.17;15.10;;;16.20;99.90;;;;;;4914117;29;20873;-70
2022/08/09 04:41:17;;;;;;;15.47;14.50;;;16.30;99.90;;;;;;4914158;29;20461;-70
2022/08/09 04:43:45;;;;;;;15.83;14.93;;;16.30;99.90;;;;;;4914400;29;20454;-69
2022/08/09 04:46:11;;;;;;;15.77;14.90;;;16.30;99.90;;;;;;4914076;29;20848;-70
2022/08/09 04:48:38;;;;;;;15.73;14.93;;;16.30;99.90;;;;;;4914032;29;20465;-70
2022/08/09 04:51:05;;;;;;;16.83;15.63;;;16.40;99.90;;;;;;4913785;29;20462;-70
2022/08/09 04:53:32;;;;;;;16.90;16.00;;;16.40;99.90;;;;;;4913859;29;20450;-69
2022/08/09 04:55:58;;;;;;;16.50;15.37;;;16.40;99.90;;;;;;4914306;29;20450;-70
2022/08/09 04:58:25;;;;;;;15.63;14.60;;;16.60;99.90;;;;;;4913997;29;20459;-70
2022/08/09 05:00:54;;;;;;;16.27;14.77;;;17.00;99.90;;;;;;4913718;29;20459;-70
2022/08/09 05:03:21;;;;;;;16.27;14.87;;;17.40;99.90;;;;;;4913629;29;20557;-70
2022/08/09 05:05:48;;;;;;;18.07;16.33;;;17.90;99.90;;;;;;4913676;29;20458;-70
2022/08/09 05:08:14;;;;;;;18.17;16.60;;;18.30;99.90;;;;;;4914183;29;20493;-71
2022/08/09 05:10:41;;;;;;;16.93;15.80;;;18.60;99.90;;;;;;4914117;29;20458;-71
2022/08/09 05:13:08;;;;;;;17.40;15.83;;;19.00;99.90;;;;;;4913700;29;20462;-71
2022/08/09 05:15:34;;;;;;;18.83;17.33;;;19.50;99.90;;;;;;4913627;29;20863;-71
2022/08/09 05:18:02;;;;;;;16.63;15.67;;;19.90;99.90;;;;;;4913497;29;20541;-70
2022/08/09 05:20:29;;;;;;;17.43;16.10;;;20.20;99.90;;;;;;4913833;29;20462;-71
2022/08/09 05:22:56;;;;;;;18.50;17.30;;;20.30;99.90;;;;;;4914004;29;20469;-65
2022/08/09 05:25:23;;;;;;;18.97;17.57;;;20.40;99.90;;;;;;4913790;29;20454;-65
2022/08/09 05:27:50;;;;;;;17.50;16.40;;;20.40;99.90;;;;;;4913617;29;20935;-66
2022/08/09 05:30:17;;;;;;;17.93;16.80;;;20.60;99.70;;;;;;4913770;29;20458;-66
2022/08/09 05:32:44;;;;;;;17.27;16.27;;;21.00;98.50;;;;;;4913793;29;20940;-65
2022/08/09 05:35:12;;;;;;;18.90;17.83;;;21.40;97.50;;;;;;4914076;29;20451;-65
2022/08/09 05:37:39;;;;;;;19.10;17.83;;;21.50;96.50;;;;;;4914257;29;20455;-65
2022/08/09 05:40:07;;;;;;;16.13;15.10;;;21.70;96.10;;;;;;4908660;29;20494;-66
2022/08/09 05:42:34;;;;;;;17.77;16.50;;;21.70;95.80;;;;;;4905182;29;20455;-65
2022/08/09 05:45:01;;;;;;;16.50;15.70;;;21.90;95.50;;;;;;4913740;29;20825;-65
2022/08/09 05:47:28;;;;;;;19.90;16.63;;;22.30;95.00;;;;;;4917650;29;20498;-65
2022/08/09 05:49:55;;;;;;;16.20;15.07;;;22.60;94.00;;;;;;4899151;29;20459;-66
2022/08/09 05:52:23;;;;;;;17.47;16.27;;;23.00;93.20;;;;;;4899069;29;20458;-66
2022/08/09 05:54:50;;;;;;;14.80;14.00;;;23.40;92.00;;;;;;4898836;29;20538;-65
2022/08/09 05:57:17;;;;;;;16.30;15.47;;;23.60;91.00;;;;;;4909323;29;20458;-65
2022/08/09 05:59:43;;;;;;;13.90;13.20;;;23.80;90.70;;;;;;4918080;29;20458;-66
2022/08/09 06:02:10;;;;;;;14.90;14.10;;;23.90;89.60;;;;;;4917609;29;20454;-65
2022/08/09 06:04:37;;;;;;;15.20;14.47;;;24.00;89.00;;;;;;4917170;29;21069;-66
2022/08/09 06:07:04;;;;;;;14.77;14.07;;;24.20;87.80;;;;;;4917265;29;20988;-63
2022/08/09 06:09:32;;;;;;;16.43;14.90;;;24.00;88.10;;;;;;4917299;29;20552;-65
2022/08/09 06:11:59;;;;;;;15.57;14.60;;;24.50;87.60;;;;;;4917405;29;20794;-63
2022/08/09 06:14:26;;;;;;;16.20;15.20;;;24.90;85.20;;;;;;4917038;29;20490;-65
2022/08/09 06:16:54;;;;;;;17.70;16.43;;;24.80;85.20;;;;;;4916782;29;20496;-63
2022/08/09 06:19:20;;;;;;;15.40;14.50;;;25.30;82.50;;;;;;4914476;29;20615;-63
2022/08/09 06:21:47;;;;;;;15.27;14.57;;;25.60;81.00;;;;;;4916824;29;20454;-66
2022/08/09 06:24:14;;;;;;;14.73;14.03;;;26.00;79.10;;;;;;4917132;29;20541;-66
2022/08/09 06:26:43;;;;;;;15.30;14.50;;;26.20;77.50;;;;;;4916883;29;20530;-66
2022/08/09 06:29:10;;;;;;;16.50;15.80;;;26.30;76.80;;;;;;4916832;29;20462;-63
2022/08/09 06:31:37;;;;;;;14.27;13.57;;;26.70;75.10;;;;;;4916824;29;20485;-66
2022/08/09 06:34:04;;;;;;;15.60;14.90;;;26.80;73.80;;;;;;4916577;29;20463;-63
2022/08/09 06:36:55;;;;;;;15.97;15.13;;;27.10;72.00;;;;;;4915505;29;20468;-63
2022/08/09 06:39:22;;;;;;;17.03;16.07;;;26.70;71.90;;;;;;4914526;29;20896;-65
2022/08/09 06:41:50;;;;;;;15.87;15.10;;;27.10;71.50;;;;;;4916641;29;20481;-65
2022/08/09 06:44:17;;;;;;;16.13;15.43;;;27.60;70.10;;;;;;4916635;29;20446;-65
2022/08/09 06:46:44;;;;;;;17.93;16.70;;;28.10;68.10;;;;;;4916690;29;20490;-64
2022/08/09 06:49:11;;;;;;;16.10;15.40;;;28.40;66.70;;;;;;4916578;29;20468;-64
2022/08/09 06:51:38;;;;;;;16.60;15.63;;;28.50;66.50;;;;;;4916480;29;20461;-65
2022/08/09 06:54:04;;;;;;;17.13;16.37;;;28.70;65.00;;;;;;4915561;29;20458;-65
2022/08/09 06:56:31;;;;;;;16.20;15.40;;;29.00;63.80;;;;;;4916573;29;20553;-65
2022/08/09 06:58:59;;;;;;;16.40;15.20;;;29.00;64.10;;;;;;4916617;29;20455;-64
2022/08/09 07:01:26;;;;;;;16.23;15.43;;;29.50;62.10;;;;;;4916128;29;20963;-65
2022/08/09 07:03:52;;;;;;;16.57;15.77;;;29.50;60.70;;;;;;4916117;29;20454;-65
2022/08/09 07:06:19;;;;;;;16.80;15.80;;;29.40;60.90;;;;;;4916301;29;20872;-65
2022/08/09 07:08:47;;;;;;;17.13;16.07;;;29.70;60.00;;;;;;4916287;29;20458;-65
2022/08/09 07:11:13;;;;;;;17.37;16.30;;;30.00;59.20;;;;;;4916322;29;20458;-65
2022/08/09 07:13:40;;;;;;;17.73;16.70;;;29.70;59.50;;;;;;4916036;29;20879;-65
2022/08/09 07:16:08;;;;;;;17.40;16.20;;;29.70;59.80;;;;;;4915934;29;20459;-65
2022/08/09 07:18:35;;;;;;;17.80;16.80;;;29.70;59.40;;;;;;4915682;29;20490;-65
2022/08/09 07:21:02;;;;;;;16.40;15.40;;;30.30;58.40;;;;;;4915787;29;20466;-65
2022/08/09 07:23:28;;;;;;;16.73;15.80;;;31.00;56.80;;;;;;4914514;29;20463;-64
2022/08/09 07:25:55;;;;;;;17.83;16.83;;;31.30;56.20;;;;;;4916124;29;20513;-65
2022/08/09 07:28:22;;;;;;;16.57;15.77;;;31.40;55.60;;;;;;4915883;29;20541;-65
2022/08/09 07:33:49;;;;;;;18.03;17.03;;;31.40;55.10;;;;;;4909458;29;20458;-62
2022/08/09 07:36:16;;;;;;;17.00;16.13;;;31.50;54.90;;;;;;4915199;29;20453;-65
2022/08/09 07:38:43;;;;;;;17.10;16.30;;;32.40;53.40;;;;;;4913637;29;20458;-65
2022/08/09 07:41:10;;;;;;;15.40;14.80;;;32.60;52.50;;;;;;4915298;29;20454;-65
2022/08/09 07:43:36;;;;;;;16.70;15.70;;;32.40;52.50;;;;;;4914838;29;21015;-64
2022/08/09 07:46:03;;;;;;;17.70;16.53;;;32.70;52.00;;;;;;4914900;29;20454;-65
2022/08/09 07:48:30;;;;;;;16.43;15.70;;;33.00;51.50;;;;;;4914897;29;20501;-65
2022/08/09 07:50:59;;;;;;;16.77;15.87;;;32.50;52.20;;;;;;4915468;29;20450;-65
2022/08/09 07:53:26;;;;;;;16.40;15.50;;;32.40;52.40;;;;;;4914928;29;20454;-65
2022/08/09 07:55:52;;;;;;;17.23;16.10;;;32.30;53.10;;;;;;4914874;29;20465;-65
2022/08/09 07:58:19;;;;;;;16.70;15.67;;;32.40;53.20;;;;;;4914827;29;20446;-65
2022/08/09 08:00:46;;;;;;;16.47;15.30;;;32.50;53.00;;;;;;4914947;29;20857;-66
2022/08/09 08:03:12;;;;;;;17.07;16.10;;;32.30;53.30;;;;;;4914851;29;20521;-65
2022/08/09 08:05:39;;;;;;;16.80;16.10;;;32.40;53.20;;;;;;4914332;29;20455;-65
2022/08/09 08:08:07;;;;;;;16.63;15.63;;;32.70;53.70;;;;;;4912806;29;20855;-65
2022/08/09 08:10:34;;;;;;;15.93;15.13;;;32.30;53.00;;;;;;4914698;29;20451;-65
2022/08/09 08:13:01;;;;;;;16.13;15.43;;;32.80;53.10;;;;;;4912782;29;20457;-65
2022/08/09 08:15:28;;;;;;;17.43;16.23;;;33.20;51.60;;;;;;4914508;29;20465;-65
2022/08/09 08:17:55;;;;;;;17.27;16.57;;;33.00;51.70;;;;;;4914055;29;20976;-65
2022/08/09 08:20:23;;;;;;;16.97;16.07;;;33.60;51.00;;;;;;4914355;29;20458;-65
2022/08/09 08:22:50;;;;;;;16.53;15.67;;;34.20;49.80;;;;;;4914190;29;20494;-65
2022/08/09 08:25:18;;;;;;;16.40;15.60;;;35.20;48.60;;;;;;4914186;29;20823;-66
2022/08/09 08:27:45;;;;;;;16.27;15.60;;;35.00;47.90;;;;;;4914362;29;20494;-63
2022/08/09 08:30:13;;;;;;;15.67;14.97;;;35.50;47.50;;;;;;4914446;29;20516;-63
2022/08/09 08:32:40;;;;;;;14.73;14.13;;;35.60;46.80;;;;;;4912361;29;20553;-63
2022/08/09 08:35:07;;;;;;;14.40;13.70;;;36.20;45.00;;;;;;4914011;29;20485;-65
2022/08/09 08:37:34;;;;;;;15.63;15.03;;;36.00;44.70;;;;;;4913937;29;20972;-63
2022/08/09 08:40:01;;;;;;;16.00;15.40;;;36.00;44.30;;;;;;4914065;29;20529;-64
2022/08/09 08:42:30;;;;;;;15.70;14.90;;;35.90;44.90;;;;;;4914321;29;20466;-63
2022/08/09 08:44:59;;;;;;;16.37;15.43;;;36.70;43.90;;;;;;4914267;29;20465;-63
2022/08/09 08:47:27;;;;;;;15.93;15.23;;;36.80;43.00;;;;;;4913791;29;20917;-63
2022/08/09 08:49:55;;;;;;;16.00;15.40;;;37.00;42.20;;;;;;4913780;29;20458;-63
2022/08/09 08:52:24;;;;;;;16.43;15.80;;;36.80;42.40;;;;;;4913846;29;20525;-63
2022/08/09 08:54:51;;;;;;;16.43;15.83;;;36.90;42.00;;;;;;4913880;29;20911;-64
2022/08/09 08:57:19;;;;;;;16.03;15.30;;;37.10;41.90;;;;;;4913703;29;20458;-64
2022/08/09 08:59:48;;;;;;;16.77;16.17;;;37.60;41.20;;;;;;4913769;29;20462;-64
2022/08/09 09:02:22;;;;;;;16.00;15.40;;;37.00;41.30;;;;;;4914014;29;21132;-66
2022/08/09 09:04:51;;;;;;;16.00;15.40;;;37.40;40.70;;;;;;4913474;29;20502;-66
2022/08/09 09:07:18;;;;;;;16.53;15.73;;;37.70;40.30;;;;;;4913339;29;20483;-65
2022/08/09 09:09:46;;;;;;;15.17;14.57;;;37.50;40.60;;;;;;4913847;29;20464;-65
2022/08/09 09:12:15;;;;;;;15.00;14.20;;;37.70;39.90;;;;;;4913742;29;20450;-63
2022/08/09 09:14:42;;;;;;;16.63;15.70;;;37.50;40.30;;;;;;4913856;29;20471;-64
2022/08/09 09:17:10;;;;;;;16.07;15.27;;;37.30;39.90;;;;;;4913031;29;20470;-64
2022/08/09 09:19:37;;;;;;;15.00;14.50;;;36.10;39.90;;;;;;4913320;29;20486;-64
2022/08/09 09:22:07;;;;;;;15.53;14.70;;;35.30;41.00;;;;;;4913408;29;20809;-64
2022/08/09 09:24:36;;;;;;;15.13;14.53;;;35.00;41.60;;;;;;4913570;29;20876;-63
2022/08/09 09:27:04;;;;;;;16.03;15.23;;;35.60;40.30;;;;;;4913308;29;20823;-63
2022/08/09 09:29:33;;;;;;;14.57;13.87;;;35.70;40.10;;;;;;4913560;29;20514;-64
2022/08/09 09:32:01;;;;;;;14.47;13.83;;;34.90;40.20;;;;;;4913549;29;20451;-64
2022/08/09 09:34:30;;;;;;;14.57;14.07;;;33.70;40.70;;;;;;4913654;29;20458;-65
2022/08/09 09:36:57;;;;;;;15.80;15.10;;;33.30;41.50;;;;;;4913629;29;20462;-64
2022/08/09 09:39:25;;;;;;;15.67;14.97;;;33.50;41.40;;;;;;4913303;29;20941;-64
2022/08/09 09:41:52;;;;;;;15.60;15.10;;;33.80;40.10;;;;;;4913325;29;20961;-64
2022/08/09 09:44:25;;;;;;;15.23;14.33;;;34.00;40.70;;;;;;4911536;29;20964;-63
2022/08/09 09:46:56;;;;;;;13.67;13.27;;;33.10;41.70;;;;;;4913014;29;20688;-64
2022/08/09 09:49:24;;;;;;;15.20;14.60;;;33.40;41.20;;;;;;4913188;29;20490;-64
2022/08/09 09:52:01;;;;;;;15.23;14.63;;;33.00;41.60;;;;;;4913354;29;20911;-64
2022/08/09 09:54:36;;;;;;;14.93;14.23;;;32.20;42.90;;;;;;4913742;29;20524;-64
2022/08/09 09:57:14;;;;;;;15.33;14.83;;;32.60;43.20;;;;;;4913097;29;20821;-64
2022/08/09 09:59:41;;;;;;;16.17;15.57;;;33.20;43.20;;;;;;4913101;29;20454;-65
2022/08/09 10:02:09;;;;;;;14.43;13.93;;;33.60;41.70;;;;;;4912993;29;20465;-64
2022/08/09 10:04:35;;;;;;;15.70;15.10;;;33.60;41.70;;;;;;4913034;29;20608;-64
2022/08/09 10:07:04;;;;;;;14.43;13.77;;;33.40;40.60;;;;;;4913040;29;20805;-64
2022/08/09 10:09:47;;;;;;;15.40;14.80;;;33.70;40.20;;;;;;4913096;29;20506;-64
2022/08/09 10:12:24;;;;;;;15.37;14.77;;;33.40;40.60;;;;;;4913197;29;20879;-66
2022/08/09 10:14:51;;;;;;;14.60;14.10;;;33.10;40.30;;;;;;4912802;29;20936;-63
2022/08/09 10:17:19;;;;;;;14.77;14.07;;;32.70;40.60;;;;;;4912655;29;20481;-64
2022/08/09 10:19:46;;;;;;;15.00;14.20;;;32.90;40.70;;;;;;4912494;29;20497;-64
2022/08/09 10:22:14;;;;;;;15.50;14.60;;;33.90;40.30;;;;;;4913164;29;20461;-66
2022/08/09 10:24:41;;;;;;;15.10;14.60;;;34.50;38.70;;;;;;4913071;29;20465;-64
2022/08/09 10:27:08;;;;;;;16.27;15.57;;;34.10;38.70;;;;;;4912802;29;20454;-63
2022/08/09 10:29:34;;;;;;;15.50;14.67;;;34.00;38.80;;;;;;4915520;29;20517;-64
2022/08/09 10:32:01;;;;;;;13.90;13.40;;;34.30;38.60;;;;;;4916311;29;20466;-63
2022/08/09 10:34:30;;;;;;;15.83;15.20;;;34.30;38.30;;;;;;4916669;29;20454;-63
2022/08/09 10:36:56;;;;;;;14.90;14.40;;;34.50;38.50;;;;;;4916147;29;20793;-64
2022/08/09 10:39:25;;;;;;;15.10;14.60;;;34.50;38.80;;;;;;4916125;29;20872;-66
2022/08/09 10:41:51;;;;;;;15.40;14.80;;;34.30;38.60;;;;;;4915977;29;20492;-66
2022/08/09 10:44:19;;;;;;;14.97;14.47;;;34.20;38.70;;;;;;4916077;29;20887;-66
2022/08/09 10:47:13;;;;;;;15.13;14.53;;;34.40;38.80;;;;;;4916279;29;20458;-64
2022/08/09 10:49:46;;;;;;;16.00;15.30;;;33.90;38.30;;;;;;4916027;29;20477;-66
2022/08/09 10:52:40;;;;;;;14.33;13.80;;;33.30;39.00;;;;;;4916594;29;20446;-64
2022/08/09 10:55:21;;;;;;;15.10;14.50;;;33.90;38.80;;;;;;4916014;29;20471;-64
2022/08/09 10:57:48;;;;;;;15.27;14.70;;;35.00;36.80;;;;;;4915842;29;20458;-64
2022/08/09 11:00:36;;;;;;;16.30;15.70;;;35.30;35.10;;;;;;4916010;29;20465;-64
2022/08/09 11:03:18;;;;;;;17.13;16.23;;;34.60;35.50;;;;;;4915747;29;20457;-64
2022/08/09 11:06:18;;;;;;;16.60;15.90;;;34.30;35.60;;;;;;4916044;29;20461;-64
2022/08/09 11:08:46;;;;;;;14.53;13.93;;;33.40;36.00;;;;;;4915706;29;20996;-64
2022/08/09 11:11:15;;;;;;;14.50;14.00;;;33.40;36.70;;;;;;4915809;29;20490;-64
2022/08/09 11:13:41;;;;;;;15.93;15.40;;;33.70;36.10;;;;;;4915670;29;20449;-63
2022/08/09 11:16:34;;;;;;;15.77;15.27;;;34.10;35.30;;;;;;4915433;29;20482;-63
2022/08/09 11:19:01;;;;;;;15.50;14.93;;;34.10;35.40;;;;;;4915301;29;20486;-64
2022/08/09 11:21:50;;;;;;;15.60;14.90;;;33.40;35.60;;;;;;4915830;29;20458;-63
2022/08/09 11:24:17;;;;;;;15.53;15.03;;;34.40;35.60;;;;;;4915417;29;20964;-65
2022/08/09 11:26:47;;;;;;;16.23;15.43;;;34.20;35.60;;;;;;4915615;29;20458;-64
2022/08/09 11:29:47;;;;;;;16.60;15.97;;;34.40;35.20;;;;;;4913856;29;20589;-64
2022/08/09 11:32:41;;;;;;;16.00;15.27;;;34.40;35.20;;;;;;4915711;29;20451;-64
2022/08/09 11:35:15;;;;;;;15.80;15.13;;;34.50;35.00;;;;;;4915146;29;20960;-64
2022/08/09 11:37:43;;;;;;;16.00;15.50;;;34.20;34.70;;;;;;4915608;29;20538;-64
2022/08/09 11:40:12;;;;;;;17.00;16.30;;;34.30;35.00;;;;;;4914576;29;20457;-65
2022/08/09 11:42:42;;;;;;;16.03;15.40;;;34.10;35.10;;;;;;4914892;29;20827;-64
2022/08/09 11:45:22;;;;;;;17.10;16.40;;;34.20;35.20;;;;;;4915060;29;20457;-65
2022/08/09 11:47:50;;;;;;;16.40;15.90;;;34.50;34.60;;;;;;4914630;29;20514;-65
2022/08/09 11:50:17;;;;;;;15.47;14.83;;;35.10;33.70;;;;;;4914999;29;20450;-65
2022/08/09 11:53:18;;;;;;;16.33;15.73;;;35.00;34.50;;;;;;4915212;29;20971;-65
2022/08/09 11:55:45;;;;;;;17.27;16.57;;;34.90;34.20;;;;;;4915288;29;20453;-65
2022/08/09 11:58:45;;;;;;;16.60;16.00;;;35.00;35.00;;;;;;4915030;29;20461;-65
2022/08/09 12:01:13;;;;;;;15.90;15.40;;;35.80;34.00;;;;;;4914866;29;20458;-64
2022/08/09 12:03:41;;;;;;;15.63;15.13;;;36.30;33.60;;;;;;4914925;29;20473;-65
2022/08/09 12:06:14;;;;;;;17.00;16.30;;;36.70;33.10;;;;;;4914497;29;20458;-65
2022/08/09 12:08:46;;;;;;;16.50;15.80;;;37.40;32.60;;;;;;4912613;29;20576;-65
2022/08/09 12:11:14;;;;;;;16.37;15.73;;;38.30;31.80;;;;;;4915020;29;20534;-65
2022/08/09 12:13:46;;;;;;;16.20;15.70;;;38.50;31.00;;;;;;4914792;29;20920;-65
2022/08/09 12:16:15;;;;;;;14.90;14.20;;;37.10;31.80;;;;;;4914768;29;20462;-65
2022/08/09 12:18:44;;;;;;;14.33;13.83;;;35.40;34.00;;;;;;4914476;29;20486;-64
2022/08/09 12:21:11;;;;;;;14.90;14.40;;;34.80;34.90;;;;;;4914418;29;20860;-65
2022/08/09 12:23:42;;;;;;;14.97;14.47;;;35.70;34.10;;;;;;4914588;29;20870;-65
2022/08/09 12:26:09;;;;;;;15.37;14.80;;;35.80;34.40;;;;;;4914356;29;21024;-65
2022/08/09 12:28:38;;;;;;;16.70;16.10;;;35.50;34.40;;;;;;4912421;29;20573;-65
2022/08/09 12:31:17;;;;;;;15.17;14.50;;;35.40;34.50;;;;;;4914170;29;20458;-65
2022/08/09 12:33:44;;;;;;;16.57;15.97;;;35.50;34.90;;;;;;4914660;29;20816;-65
2022/08/09 12:36:11;;;;;;;16.50;15.90;;;36.10;33.90;;;;;;4914235;29;20450;-65
2022/08/09 12:38:37;;;;;;;16.93;16.23;;;36.10;33.40;;;;;;4912373;29;20820;-65
2022/08/09 12:41:04;;;;;;;16.10;15.50;;;34.70;34.90;;;;;;4914048;29;20871;-64
2022/08/09 12:43:31;;;;;;;15.93;15.33;;;34.10;35.60;;;;;;4914065;29;20857;-65
2022/08/09 12:45:59;;;;;;;17.07;16.47;;;34.20;35.70;;;;;;4914152;29;20909;-64
2022/08/09 12:48:28;;;;;;;16.17;15.53;;;35.50;35.10;;;;;;4913942;29;20486;-64
2022/08/09 12:50:56;;;;;;;16.03;15.33;;;36.10;33.70;;;;;;4911512;29;20458;-64
2022/08/09 12:53:25;;;;;;;14.63;14.03;;;36.20;33.60;;;;;;4913868;29;20819;-64
2022/08/09 12:55:52;;;;;;;16.60;15.90;;;35.80;34.30;;;;;;4913657;29;20749;-65
2022/08/09 12:58:19;;;;;;;14.80;14.20;;;35.70;33.60;;;;;;4913730;29;20459;-64
2022/08/09 13:00:47;;;;;;;15.20;14.60;;;35.70;33.80;;;;;;4913644;29;20959;-65
2022/08/09 13:03:13;;;;;;;14.87;14.37;;;35.70;33.50;;;;;;4914074;29;20498;-65
2022/08/09 13:05:44;;;;;;;16.80;16.00;;;35.50;33.70;;;;;;4913720;29;20454;-65
2022/08/09 13:08:14;;;;;;;15.90;15.30;;;35.60;33.60;;;;;;4913712;29;20536;-64
2022/08/09 13:10:45;;;;;;;14.17;13.67;;;36.00;33.30;;;;;;4913560;29;21017;-64
2022/08/09 13:13:11;;;;;;;14.87;14.27;;;34.80;33.80;;;;;;4913940;29;20549;-64
2022/08/09 13:15:52;;;;;;;14.33;13.83;;;34.20;34.50;;;;;;4913602;29;20458;-64
2022/08/09 13:18:19;;;;;;;14.60;14.03;;;34.10;34.30;;;;;;4913362;29;21031;-64
2022/08/09 13:20:47;;;;;;;14.97;14.27;;;34.50;33.60;;;;;;4913858;29;20506;-64
2022/08/09 13:23:13;;;;;;;14.80;14.20;;;33.90;34.00;;;;;;4913825;29;20455;-65
2022/08/09 13:25:41;;;;;;;15.17;14.67;;;34.20;33.60;;;;;;4913760;29;20940;-65
2022/08/09 13:28:14;;;;;;;14.43;13.93;;;34.30;33.50;;;;;;4913215;29;20498;-64
2022/08/09 13:30:41;;;;;;;14.80;14.30;;;34.00;33.70;;;;;;4913722;29;20457;-64
2022/08/09 13:33:09;;;;;;;15.80;15.30;;;34.20;33.40;;;;;;4912912;29;20573;-64
2022/08/09 13:35:36;;;;;;;14.57;14.07;;;33.80;33.60;;;;;;4913339;29;20453;-64
2022/08/09 13:38:04;;;;;;;16.07;15.20;;;33.10;34.30;;;;;;4913360;29;20458;-64
2022/08/09 13:40:30;;;;;;;15.57;14.97;;;33.50;34.40;;;;;;4913619;29;20679;-64
2022/08/09 13:42:57;;;;;;;15.23;14.73;;;34.10;33.40;;;;;;4913953;29;20458;-64
2022/08/09 13:45:24;;;;;;;14.80;14.30;;;34.00;33.00;;;;;;4913453;29;20823;-64
2022/08/09 13:47:51;;;;;;;14.57;14.07;;;33.70;33.80;;;;;;4913449;29;21322;-65
2022/08/09 13:50:18;;;;;;;14.90;14.30;;;33.80;34.10;;;;;;4913368;29;20500;-64
2022/08/09 13:52:45;;;;;;;14.40;13.90;;;33.60;33.40;;;;;;4913634;29;20545;-64
2022/08/09 13:55:14;;;;;;;14.43;13.83;;;33.20;34.10;;;;;;4913687;29;20481;-64
2022/08/09 13:57:45;;;;;;;15.10;14.50;;;32.50;34.90;;;;;;4913592;29;20453;-64
2022/08/09 14:00:15;;;;;;;15.00;14.50;;;32.90;34.60;;;;;;4913821;29;20458;-65
2022/08/09 14:02:43;;;;;;;14.27;13.77;;;33.20;33.90;;;;;;4915117;29;20466;-66
2022/08/09 14:05:10;;;;;;;14.73;14.13;;;33.40;33.30;;;;;;4916927;29;20450;-66
2022/08/09 14:07:37;;;;;;;15.53;14.93;;;34.30;32.60;;;;;;4916848;29;20504;-66
2022/08/09 14:10:04;;;;;;;13.47;13.00;;;34.60;32.50;;;;;;4916835;29;20496;-64
2022/08/09 14:12:33;;;;;;;14.93;14.30;;;34.10;32.90;;;;;;4916877;29;20458;-66
2022/08/09 14:14:59;;;;;;;14.50;14.00;;;33.50;33.70;;;;;;4917235;29;20860;-66
2022/08/09 14:17:26;;;;;;;15.63;14.60;;;33.30;34.20;;;;;;4916726;29;20473;-64
2022/08/09 14:19:54;;;;;;;15.27;14.67;;;33.60;34.30;;;;;;4916647;29;20490;-64
2022/08/09 14:22:21;;;;;;;14.70;14.20;;;34.10;33.80;;;;;;4916766;29;20731;-65
2022/08/09 14:24:47;;;;;;;14.70;14.00;;;34.20;33.80;;;;;;4916595;29;20461;-66
2022/08/09 14:27:14;;;;;;;14.30;13.80;;;34.20;33.40;;;;;;4916921;29;20450;-66
2022/08/09 14:29:42;;;;;;;14.03;13.40;;;33.90;34.20;;;;;;4916694;29;21012;-66
2022/08/09 14:32:09;;;;;;;14.53;14.03;;;33.20;34.10;;;;;;4916455;29;20826;-65
2022/08/09 14:34:36;;;;;;;14.53;13.93;;;32.60;35.20;;;;;;4916395;29;21195;-66
2022/08/09 14:37:05;;;;;;;15.47;14.90;;;32.90;34.60;;;;;;4916353;29;20468;-66
2022/08/09 14:39:31;;;;;;;15.30;14.70;;;32.70;34.20;;;;;;4916433;29;20502;-64
2022/08/09 14:41:58;;;;;;;15.20;14.40;;;32.60;34.60;;;;;;4916676;29;20835;-65
2022/08/09 14:44:25;;;;;;;14.23;13.73;;;32.40;34.70;;;;;;4916322;29;20506;-65
2022/08/09 14:46:53;;;;;;;15.57;14.97;;;32.10;35.20;;;;;;4916339;29;20462;-65
2022/08/09 14:49:20;;;;;;;15.70;14.67;;;32.00;35.70;;;;;;4916139;29;20792;-66
2022/08/09 14:51:47;;;;;;;14.50;13.90;;;31.80;35.70;;;;;;4916297;29;20949;-66
2022/08/09 14:54:15;;;;;;;14.60;14.10;;;31.50;35.60;;;;;;4916684;29;20457;-66
2022/08/09 14:56:42;;;;;;;13.80;13.30;;;31.00;36.00;;;;;;4914823;29;20727;-65
2022/08/09 14:59:10;;;;;;;15.23;14.40;;;30.60;36.80;;;;;;4915896;29;20462;-65
2022/08/09 15:01:36;;;;;;;14.70;14.10;;;30.40;36.50;;;;;;4915849;29;20530;-66
2022/08/09 15:04:05;;;;;;;14.03;13.53;;;30.40;36.80;;;;;;4915930;29;20800;-66
2022/08/09 15:06:31;;;;;;;13.50;13.10;;;30.30;37.10;;;;;;4915609;29;20468;-66
2022/08/09 15:08:58;;;;;;;14.00;13.50;;;30.30;37.10;;;;;;4915854;29;20465;-65
2022/08/09 15:11:25;;;;;;;14.07;13.33;;;30.30;37.20;;;;;;4913929;29;20963;-66
2022/08/09 15:13:51;;;;;;;13.07;12.57;;;30.10;37.10;;;;;;4914767;29;20458;-65
2022/08/09 15:16:18;;;;;;;13.47;12.97;;;30.10;37.60;;;;;;4913903;29;20925;-66
2022/08/09 15:18:45;;;;;;;13.70;13.10;;;29.90;37.60;;;;;;4915639;29;20509;-66
2022/08/09 15:21:13;;;;;;;15.50;14.40;;;29.80;37.70;;;;;;4915750;29;20462;-66
2022/08/09 15:23:40;;;;;;;13.40;12.83;;;29.90;37.50;;;;;;4915759;29;20534;-66
2022/08/09 15:26:07;;;;;;;13.47;12.83;;;29.90;37.10;;;;;;4915381;29;20461;-66
2022/08/09 15:28:34;;;;;;;13.37;12.90;;;30.00;36.80;;;;;;4915355;29;20506;-66
2022/08/09 15:31:00;;;;;;;14.20;13.70;;;29.90;36.90;;;;;;4915453;29;20486;-66
2022/08/09 15:33:27;;;;;;;14.47;13.93;;;30.00;37.00;;;;;;4913835;29;20515;-66
2022/08/09 15:35:54;;;;;;;14.40;13.90;;;30.10;37.70;;;;;;4915308;29;20454;-65
2022/08/09 15:38:22;;;;;;;13.93;13.00;;;30.20;36.80;;;;;;4915158;29;20854;-65
2022/08/09 15:40:49;;;;;;;15.10;14.50;;;30.10;36.80;;;;;;4915125;29;20458;-65
2022/08/09 15:43:15;;;;;;;14.30;13.83;;;30.10;36.90;;;;;;4915338;29;20458;-65
2022/08/09 15:45:42;;;;;;;14.73;14.23;;;30.20;36.70;;;;;;4915153;29;20822;-65
2022/08/09 15:48:09;;;;;;;14.23;13.50;;;30.10;36.30;;;;;;4915044;29;20458;-66
2022/08/09 15:50:36;;;;;;;14.70;14.10;;;30.00;36.40;;;;;;4913083;29;20908;-66
2022/08/09 15:53:03;;;;;;;13.50;12.90;;;30.10;36.40;;;;;;4915030;29;20462;-65
2022/08/09 15:55:31;;;;;;;14.27;13.60;;;30.10;36.30;;;;;;4915283;29;20458;-65
2022/08/09 15:57:57;;;;;;;13.93;13.53;;;30.20;36.40;;;;;;4915095;29;20469;-65